sensor_id;sensor_type;location;lat;lon;timestamp;temperature;humidity
38746;DHT22;24488;0.000;0.000;2022-08-25T00:01:39;24.80;48.30
38746;DHT22;24488;0.000;0.000;2022-08-25T00:04:09;24.80;48.30
38746;DHT22;24488;0.000;0.000;2022-08-25T00:06:37;24.90;48.30
38746;DHT22;24488;0.000;0.000;2022-08-25T00:09:03;24.80;47.80
38746;DHT22;24488;0.000;0.000;2022-08-25T00:11:30;24.80;48.30
38746;DHT22;24488;0.000;0.000;2022-08-25T00:13:58;24.80;48.30
38746;DHT22;24488;0.000;0.000;2022-08-25T00:16:25;24.80;48.30
38746;DHT22;24488;0.000;0.000;2022-08-25T00:18:53;24.80;47.80
38746;DHT22;24488;0.000;0.000;2022-08-25T00:21:20;24.80;48.30
38746;DHT22;24488;0.000;0.000;2022-08-25T00:23:45;24.90;48.30
38746;DHT22;24488;0.000;0.000;2022-08-25T00:26:11;24.80;48.30
38746;DHT22;24488;0.000;0.000;2022-08-25T00:28:38;24.80;47.80
38746;DHT22;24488;0.000;0.000;2022-08-25T00:31:04;24.80;48.30
38746;DHT22;24488;0.000;0.000;2022-08-25T00:33:31;24.80;48.30
38746;DHT22;24488;0.000;0.000;2022-08-25T00:35:58;24.80;48.30
38746;DHT22;24488;0.000;0.000;2022-08-25T00:38:25;24.80;47.80
38746;DHT22;24488;0.000;0.000;2022-08-25T00:40:51;24.80;48.30
38746;DHT22;24488;0.000;0.000;2022-08-25T00:46:11;24.80;48.30
38746;DHT22;24488;0.000;0.000;2022-08-25T00:48:39;24.80;47.80
38746;DHT22;24488;0.000;0.000;2022-08-25T00:51:07;24.80;48.30
38746;DHT22;24488;0.000;0.000;2022-08-25T00:53:34;24.80;48.30
38746;DHT22;24488;0.000;0.000;2022-08-25T00:56:00;24.80;48.30
38746;DHT22;24488;0.000;0.000;2022-08-25T00:58:26;24.80;47.80
38746;DHT22;24488;0.000;0.000;2022-08-25T01:00:53;24.80;48.30
38746;DHT22;24488;0.000;0.000;2022-08-25T01:03:20;24.80;48.30
38746;DHT22;24488;0.000;0.000;2022-08-25T01:05:48;24.80;48.30
38746;DHT22;24488;0.000;0.000;2022-08-25T01:08:14;24.80;47.80
38746;DHT22;24488;0.000;0.000;2022-08-25T01:10:42;24.80;48.30
38746;DHT22;24488;0.000;0.000;2022-08-25T01:13:15;24.80;48.30
38746;DHT22;24488;0.000;0.000;2022-08-25T01:15:44;24.80;48.30
38746;DHT22;24488;0.000;0.000;2022-08-25T01:18:11;24.80;47.80
38746;DHT22;24488;0.000;0.000;2022-08-25T01:20:36;24.80;48.30
38746;DHT22;24488;0.000;0.000;2022-08-25T01:23:02;24.80;48.30
38746;DHT22;24488;0.000;0.000;2022-08-25T01:28:28;24.80;47.80
38746;DHT22;24488;0.000;0.000;2022-08-25T01:30:54;24.80;48.30
38746;DHT22;24488;0.000;0.000;2022-08-25T01:33:20;24.80;48.30
38746;DHT22;24488;0.000;0.000;2022-08-25T01:35:46;24.80;48.30
38746;DHT22;24488;0.000;0.000;2022-08-25T01:38:11;24.80;47.80
38746;DHT22;24488;0.000;0.000;2022-08-25T01:40:37;24.80;48.30
38746;DHT22;24488;0.000;0.000;2022-08-25T01:45:36;24.80;48.30
38746;DHT22;24488;0.000;0.000;2022-08-25T01:48:03;24.80;47.80
38746;DHT22;24488;0.000;0.000;2022-08-25T01:50:29;24.80;48.30
38746;DHT22;24488;0.000;0.000;2022-08-25T01:55:25;24.80;48.30
38746;DHT22;24488;0.000;0.000;2022-08-25T01:57:51;24.80;48.30
38746;DHT22;24488;0.000;0.000;2022-08-25T02:00:17;24.80;47.80
38746;DHT22;24488;0.000;0.000;2022-08-25T02:02:44;24.80;48.30
38746;DHT22;24488;0.000;0.000;2022-08-25T02:05:10;24.80;48.30
38746;DHT22;24488;0.000;0.000;2022-08-25T02:07:38;24.80;48.30
38746;DHT22;24488;0.000;0.000;2022-08-25T02:10:05;24.80;47.80
38746;DHT22;24488;0.000;0.000;2022-08-25T02:12:31;24.80;48.30
38746;DHT22;24488;0.000;0.000;2022-08-25T02:14:58;24.80;48.30
38746;DHT22;24488;0.000;0.000;2022-08-25T02:17:26;24.80;48.30
38746;DHT22;24488;0.000;0.000;2022-08-25T02:19:52;24.80;47.80
38746;DHT22;24488;0.000;0.000;2022-08-25T02:22:19;24.80;48.30
38746;DHT22;24488;0.000;0.000;2022-08-25T02:24:45;24.80;48.30
38746;DHT22;24488;0.000;0.000;2022-08-25T02:27:12;24.80;48.30
38746;DHT22;24488;0.000;0.000;2022-08-25T02:29:37;24.80;47.80
38746;DHT22;24488;0.000;0.000;2022-08-25T02:32:04;24.80;48.30
38746;DHT22;24488;0.000;0.000;2022-08-25T02:34:29;24.80;48.30
38746;DHT22;24488;0.000;0.000;2022-08-25T02:36:55;24.80;48.30
38746;DHT22;24488;0.000;0.000;2022-08-25T02:39:21;24.80;47.80
38746;DHT22;24488;0.000;0.000;2022-08-25T02:41:46;24.80;48.30
38746;DHT22;24488;0.000;0.000;2022-08-25T02:44:12;24.80;48.30
38746;DHT22;24488;0.000;0.000;2022-08-25T02:46:38;24.80;48.30
38746;DHT22;24488;0.000;0.000;2022-08-25T02:49:04;24.80;47.80
38746;DHT22;24488;0.000;0.000;2022-08-25T02:51:30;24.80;48.30
38746;DHT22;24488;0.000;0.000;2022-08-25T02:53:59;24.70;48.20
38746;DHT22;24488;0.000;0.000;2022-08-25T02:56:26;24.80;48.30
38746;DHT22;24488;0.000;0.000;2022-08-25T02:58:52;24.80;47.90
38746;DHT22;24488;0.000;0.000;2022-08-25T03:01:18;24.80;48.30
38746;DHT22;24488;0.000;0.000;2022-08-25T03:03:44;24.70;48.30
38746;DHT22;24488;0.000;0.000;2022-08-25T03:06:11;24.80;48.30
38746;DHT22;24488;0.000;0.000;2022-08-25T03:08:39;24.80;47.80
38746;DHT22;24488;0.000;0.000;2022-08-25T03:11:05;24.80;48.30
38746;DHT22;24488;0.000;0.000;2022-08-25T03:13:31;24.80;48.30
38746;DHT22;24488;0.000;0.000;2022-08-25T03:15:57;24.80;48.90
38746;DHT22;24488;0.000;0.000;2022-08-25T03:18:24;24.80;47.80
38746;DHT22;24488;0.000;0.000;2022-08-25T03:20:50;24.80;48.30
38746;DHT22;24488;0.000;0.000;2022-08-25T03:23:15;24.70;48.20
38746;DHT22;24488;0.000;0.000;2022-08-25T03:25:41;24.80;48.30
38746;DHT22;24488;0.000;0.000;2022-08-25T03:28:26;24.80;47.80
38746;DHT22;24488;0.000;0.000;2022-08-25T03:30:51;24.80;48.30
38746;DHT22;24488;0.000;0.000;2022-08-25T03:33:18;24.80;48.30
38746;DHT22;24488;0.000;0.000;2022-08-25T03:35:44;24.70;48.30
38746;DHT22;24488;0.000;0.000;2022-08-25T03:38:10;24.80;47.80
38746;DHT22;24488;0.000;0.000;2022-08-25T03:40:35;24.80;48.30
38746;DHT22;24488;0.000;0.000;2022-08-25T03:43:02;24.50;48.10
38746;DHT22;24488;0.000;0.000;2022-08-25T03:45:28;24.70;48.30
38746;DHT22;24488;0.000;0.000;2022-08-25T03:47:54;24.70;48.30
38746;DHT22;24488;0.000;0.000;2022-08-25T03:50:20;24.80;47.90
38746;DHT22;24488;0.000;0.000;2022-08-25T03:52:51;24.70;48.30
38746;DHT22;24488;0.000;0.000;2022-08-25T03:55:19;24.80;48.30
38746;DHT22;24488;0.000;0.000;2022-08-25T03:57:45;24.70;48.30
38746;DHT22;24488;0.000;0.000;2022-08-25T04:00:11;24.70;47.80
38746;DHT22;24488;0.000;0.000;2022-08-25T04:02:37;24.80;48.30
38746;DHT22;24488;0.000;0.000;2022-08-25T04:05:04;24.70;48.20
38746;DHT22;24488;0.000;0.000;2022-08-25T04:07:30;24.70;48.30
38746;DHT22;24488;0.000;0.000;2022-08-25T04:09:55;24.80;47.80
38746;DHT22;24488;0.000;0.000;2022-08-25T04:12:21;24.70;48.30
38746;DHT22;24488;0.000;0.000;2022-08-25T04:14:46;24.80;48.30
38746;DHT22;24488;0.000;0.000;2022-08-25T04:17:12;24.70;48.30
38746;DHT22;24488;0.000;0.000;2022-08-25T04:19:38;24.80;47.90
38746;DHT22;24488;0.000;0.000;2022-08-25T04:22:04;24.80;48.30
38746;DHT22;24488;0.000;0.000;2022-08-25T04:24:30;24.70;48.20
38746;DHT22;24488;0.000;0.000;2022-08-25T04:26:56;24.80;48.30
38746;DHT22;24488;0.000;0.000;2022-08-25T04:29:22;24.70;47.80
38746;DHT22;24488;0.000;0.000;2022-08-25T04:31:48;24.70;48.30
38746;DHT22;24488;0.000;0.000;2022-08-25T04:34:14;24.80;48.30
38746;DHT22;24488;0.000;0.000;2022-08-25T04:36:41;24.70;48.30
38746;DHT22;24488;0.000;0.000;2022-08-25T04:39:06;24.70;47.80
38746;DHT22;24488;0.000;0.000;2022-08-25T04:41:32;24.70;48.30
38746;DHT22;24488;0.000;0.000;2022-08-25T04:43:59;24.80;48.30
38746;DHT22;24488;0.000;0.000;2022-08-25T04:46:26;24.70;48.30
38746;DHT22;24488;0.000;0.000;2022-08-25T04:48:54;24.80;47.90
38746;DHT22;24488;0.000;0.000;2022-08-25T04:51:22;24.70;48.30
38746;DHT22;24488;0.000;0.000;2022-08-25T04:53:51;24.70;48.30
38746;DHT22;24488;0.000;0.000;2022-08-25T04:56:18;24.70;48.30
38746;DHT22;24488;0.000;0.000;2022-08-25T04:58:45;24.70;47.90
38746;DHT22;24488;0.000;0.000;2022-08-25T05:01:12;24.80;48.30
38746;DHT22;24488;0.000;0.000;2022-08-25T05:03:40;24.70;48.30
38746;DHT22;24488;0.000;0.000;2022-08-25T05:06:06;24.70;48.40
38746;DHT22;24488;0.000;0.000;2022-08-25T05:08:32;24.70;47.90
38746;DHT22;24488;0.000;0.000;2022-08-25T05:10:58;24.70;48.30
38746;DHT22;24488;0.000;0.000;2022-08-25T05:13:24;24.70;48.30
38746;DHT22;24488;0.000;0.000;2022-08-25T05:15:54;24.70;48.30
38746;DHT22;24488;0.000;0.000;2022-08-25T05:18:21;24.80;47.70
38746;DHT22;24488;0.000;0.000;2022-08-25T05:20:48;24.80;48.20
38746;DHT22;24488;0.000;0.000;2022-08-25T05:23:14;24.80;48.20
38746;DHT22;24488;0.000;0.000;2022-08-25T05:25:41;24.90;48.30
38746;DHT22;24488;0.000;0.000;2022-08-25T05:28:08;24.80;47.90
38746;DHT22;24488;0.000;0.000;2022-08-25T05:30:38;24.80;48.30
38746;DHT22;24488;0.000;0.000;2022-08-25T05:33:04;24.80;48.30
38746;DHT22;24488;0.000;0.000;2022-08-25T05:35:30;24.80;48.30
38746;DHT22;24488;0.000;0.000;2022-08-25T05:37:56;24.80;48.30
38746;DHT22;24488;0.000;0.000;2022-08-25T05:40:22;24.80;47.90
38746;DHT22;24488;0.000;0.000;2022-08-25T05:42:48;24.80;48.30
38746;DHT22;24488;0.000;0.000;2022-08-25T05:45:14;24.80;48.30
38746;DHT22;24488;0.000;0.000;2022-08-25T05:47:40;24.80;48.30
38746;DHT22;24488;0.000;0.000;2022-08-25T05:50:06;24.80;47.90
38746;DHT22;24488;0.000;0.000;2022-08-25T05:52:33;24.80;48.90
38746;DHT22;24488;0.000;0.000;2022-08-25T05:54:58;24.80;48.30
38746;DHT22;24488;0.000;0.000;2022-08-25T05:57:24;24.80;48.30
38746;DHT22;24488;0.000;0.000;2022-08-25T05:59:50;24.80;48.30
38746;DHT22;24488;0.000;0.000;2022-08-25T06:02:15;24.80;47.90
38746;DHT22;24488;0.000;0.000;2022-08-25T06:04:59;24.80;48.30
38746;DHT22;24488;0.000;0.000;2022-08-25T06:07:25;24.80;48.30
38746;DHT22;24488;0.000;0.000;2022-08-25T06:09:51;24.80;48.40
38746;DHT22;24488;0.000;0.000;2022-08-25T06:12:16;24.70;47.90
38746;DHT22;24488;0.000;0.000;2022-08-25T06:14:43;24.80;48.40
38746;DHT22;24488;0.000;0.000;2022-08-25T06:17:09;24.80;48.40
38746;DHT22;24488;0.000;0.000;2022-08-25T06:19:34;24.80;48.30
38746;DHT22;24488;0.000;0.000;2022-08-25T06:22:00;24.70;47.80
38746;DHT22;24488;0.000;0.000;2022-08-25T06:24:26;24.80;48.30
38746;DHT22;24488;0.000;0.000;2022-08-25T06:26:52;24.80;48.30
38746;DHT22;24488;0.000;0.000;2022-08-25T06:29:18;24.80;48.30
38746;DHT22;24488;0.000;0.000;2022-08-25T06:31:45;24.80;47.90
38746;DHT22;24488;0.000;0.000;2022-08-25T06:34:11;24.70;48.30
38746;DHT22;24488;0.000;0.000;2022-08-25T06:36:36;24.70;48.30
38746;DHT22;24488;0.000;0.000;2022-08-25T06:39:02;24.70;48.30
38746;DHT22;24488;0.000;0.000;2022-08-25T06:41:28;24.80;47.90
38746;DHT22;24488;0.000;0.000;2022-08-25T06:43:54;24.90;48.40
38746;DHT22;24488;0.000;0.000;2022-08-25T06:46:22;24.70;48.30
38746;DHT22;24488;0.000;0.000;2022-08-25T06:48:50;24.70;48.30
38746;DHT22;24488;0.000;0.000;2022-08-25T06:51:17;24.80;47.90
38746;DHT22;24488;0.000;0.000;2022-08-25T06:53:44;24.70;48.30
38746;DHT22;24488;0.000;0.000;2022-08-25T06:56:11;24.70;48.30
38746;DHT22;24488;0.000;0.000;2022-08-25T06:58:37;24.70;48.30
38746;DHT22;24488;0.000;0.000;2022-08-25T07:01:07;24.70;47.80
38746;DHT22;24488;0.000;0.000;2022-08-25T07:03:34;24.70;48.30
38746;DHT22;24488;0.000;0.000;2022-08-25T07:05:59;24.70;48.30
38746;DHT22;24488;0.000;0.000;2022-08-25T07:08:25;24.80;48.30
38746;DHT22;24488;0.000;0.000;2022-08-25T07:10:51;24.70;47.80
38746;DHT22;24488;0.000;0.000;2022-08-25T07:13:16;24.70;48.30
38746;DHT22;24488;0.000;0.000;2022-08-25T07:15:42;24.70;48.30
38746;DHT22;24488;0.000;0.000;2022-08-25T07:18:08;24.70;48.30
38746;DHT22;24488;0.000;0.000;2022-08-25T07:20:37;24.70;47.80
38746;DHT22;24488;0.000;0.000;2022-08-25T07:23:04;24.70;48.30
38746;DHT22;24488;0.000;0.000;2022-08-25T07:25:29;24.70;48.30
38746;DHT22;24488;0.000;0.000;2022-08-25T07:27:55;24.70;48.30
38746;DHT22;24488;0.000;0.000;2022-08-25T07:30:21;24.70;47.80
38746;DHT22;24488;0.000;0.000;2022-08-25T07:32:47;24.70;48.30
38746;DHT22;24488;0.000;0.000;2022-08-25T07:35:13;24.70;48.30
38746;DHT22;24488;0.000;0.000;2022-08-25T07:37:42;24.70;48.30
38746;DHT22;24488;0.000;0.000;2022-08-25T07:40:10;24.70;47.80
38746;DHT22;24488;0.000;0.000;2022-08-25T07:42:37;24.70;48.30
38746;DHT22;24488;0.000;0.000;2022-08-25T07:45:04;24.70;48.30
38746;DHT22;24488;0.000;0.000;2022-08-25T07:47:30;24.70;48.30
38746;DHT22;24488;0.000;0.000;2022-08-25T07:49:56;24.70;48.30
38746;DHT22;24488;0.000;0.000;2022-08-25T07:52:22;24.70;47.90
38746;DHT22;24488;0.000;0.000;2022-08-25T07:54:47;24.70;48.30
38746;DHT22;24488;0.000;0.000;2022-08-25T07:57:13;24.70;48.30
38746;DHT22;24488;0.000;0.000;2022-08-25T07:59:39;24.70;48.30
38746;DHT22;24488;0.000;0.000;2022-08-25T08:02:09;24.70;47.90
38746;DHT22;24488;0.000;0.000;2022-08-25T08:04:36;24.70;48.30
38746;DHT22;24488;0.000;0.000;2022-08-25T08:07:02;24.70;48.30
38746;DHT22;24488;0.000;0.000;2022-08-25T08:09:28;24.70;48.30
38746;DHT22;24488;0.000;0.000;2022-08-25T08:11:55;24.70;47.90
38746;DHT22;24488;0.000;0.000;2022-08-25T08:14:21;24.70;48.90
38746;DHT22;24488;0.000;0.000;2022-08-25T08:16:47;24.70;48.30
38746;DHT22;24488;0.000;0.000;2022-08-25T08:19:14;24.70;48.30
38746;DHT22;24488;0.000;0.000;2022-08-25T08:21:40;24.70;47.90
38746;DHT22;24488;0.000;0.000;2022-08-25T08:24:06;24.70;48.30
38746;DHT22;24488;0.000;0.000;2022-08-25T08:26:32;24.70;48.30
38746;DHT22;24488;0.000;0.000;2022-08-25T08:28:58;24.70;48.30
38746;DHT22;24488;0.000;0.000;2022-08-25T08:31:25;24.70;47.80
38746;DHT22;24488;0.000;0.000;2022-08-25T08:33:51;24.70;48.30
38746;DHT22;24488;0.000;0.000;2022-08-25T08:36:17;24.70;48.30
38746;DHT22;24488;0.000;0.000;2022-08-25T08:38:43;24.70;48.30
38746;DHT22;24488;0.000;0.000;2022-08-25T08:44:26;24.70;48.30
38746;DHT22;24488;0.000;0.000;2022-08-25T08:46:59;24.70;48.30
38746;DHT22;24488;0.000;0.000;2022-08-25T08:49:33;24.70;48.30
38746;DHT22;24488;0.000;0.000;2022-08-25T08:52:02;24.70;47.80
38746;DHT22;24488;0.000;0.000;2022-08-25T08:54:30;24.70;48.30
38746;DHT22;24488;0.000;0.000;2022-08-25T08:57:08;24.70;48.30
38746;DHT22;24488;0.000;0.000;2022-08-25T08:59:40;24.70;48.30
38746;DHT22;24488;0.000;0.000;2022-08-25T09:02:14;24.70;47.90
38746;DHT22;24488;0.000;0.000;2022-08-25T09:05:03;24.70;48.30
38746;DHT22;24488;0.000;0.000;2022-08-25T09:07:52;24.70;48.30
38746;DHT22;24488;0.000;0.000;2022-08-25T09:10:19;24.70;47.80
38746;DHT22;24488;0.000;0.000;2022-08-25T09:13:07;24.70;48.30
38746;DHT22;24488;0.000;0.000;2022-08-25T09:15:44;24.70;48.30
38746;DHT22;24488;0.000;0.000;2022-08-25T09:18:50;24.70;48.30
38746;DHT22;24488;0.000;0.000;2022-08-25T09:21:36;24.70;47.90
38746;DHT22;24488;0.000;0.000;2022-08-25T09:27:49;24.70;48.30
38746;DHT22;24488;0.000;0.000;2022-08-25T09:30:05;24.70;47.90
38746;DHT22;24488;0.000;0.000;2022-08-25T09:32:45;24.70;48.30
38746;DHT22;24488;0.000;0.000;2022-08-25T09:35:22;24.70;48.30
38746;DHT22;24488;0.000;0.000;2022-08-25T09:40:30;24.70;47.90
38746;DHT22;24488;0.000;0.000;2022-08-25T09:42:59;24.70;48.30
38746;DHT22;24488;0.000;0.000;2022-08-25T09:45:30;24.80;48.30
38746;DHT22;24488;0.000;0.000;2022-08-25T09:48:02;24.70;48.30
38746;DHT22;24488;0.000;0.000;2022-08-25T09:50:44;24.70;47.90
38746;DHT22;24488;0.000;0.000;2022-08-25T09:53:13;24.70;48.30
38746;DHT22;24488;0.000;0.000;2022-08-25T09:55:40;24.70;48.30
38746;DHT22;24488;0.000;0.000;2022-08-25T09:58:19;24.70;48.30
38746;DHT22;24488;0.000;0.000;2022-08-25T10:01:20;24.70;47.90
38746;DHT22;24488;0.000;0.000;2022-08-25T10:04:00;24.70;48.30
38746;DHT22;24488;0.000;0.000;2022-08-25T10:06:33;25.80;48.90
38746;DHT22;24488;0.000;0.000;2022-08-25T10:09:03;24.70;48.30
38746;DHT22;24488;0.000;0.000;2022-08-25T10:11:39;24.70;47.90
38746;DHT22;24488;0.000;0.000;2022-08-25T10:22:34;24.70;47.90
38746;DHT22;24488;0.000;0.000;2022-08-25T10:25:00;24.70;48.30
38746;DHT22;24488;0.000;0.000;2022-08-25T10:30:20;24.70;47.80
38746;DHT22;24488;0.000;0.000;2022-08-25T10:32:57;24.70;48.30
38746;DHT22;24488;0.000;0.000;2022-08-25T10:35:40;24.70;48.30
38746;DHT22;24488;0.000;0.000;2022-08-25T10:49:54;24.70;48.30
38746;DHT22;24488;0.000;0.000;2022-08-25T10:52:37;24.70;47.90
38746;DHT22;24488;0.000;0.000;2022-08-25T10:55:38;24.70;48.30
38746;DHT22;24488;0.000;0.000;2022-08-25T10:58:30;24.70;48.30
38746;DHT22;24488;0.000;0.000;2022-08-25T11:01:12;24.70;47.90
38746;DHT22;24488;0.000;0.000;2022-08-25T11:03:43;24.70;48.30
38746;DHT22;24488;0.000;0.000;2022-08-25T11:06:17;24.70;48.30
38746;DHT22;24488;0.000;0.000;2022-08-25T11:08:47;24.70;48.30
38746;DHT22;24488;0.000;0.000;2022-08-25T11:11:19;24.70;47.90
38746;DHT22;24488;0.000;0.000;2022-08-25T11:13:57;24.70;48.30
38746;DHT22;24488;0.000;0.000;2022-08-25T11:16:31;24.70;48.30
38746;DHT22;24488;0.000;0.000;2022-08-25T11:19:08;24.70;48.30
38746;DHT22;24488;0.000;0.000;2022-08-25T11:27:37;24.70;48.30
38746;DHT22;24488;0.000;0.000;2022-08-25T11:30:09;24.70;47.80
38746;DHT22;24488;0.000;0.000;2022-08-25T11:32:37;24.70;48.30
38746;DHT22;24488;0.000;0.000;2022-08-25T11:35:07;24.70;48.30
38746;DHT22;24488;0.000;0.000;2022-08-25T11:37:36;24.70;48.30
38746;DHT22;24488;0.000;0.000;2022-08-25T11:40:16;24.70;47.80
38746;DHT22;24488;0.000;0.000;2022-08-25T11:42:57;24.70;48.30
38746;DHT22;24488;0.000;0.000;2022-08-25T11:45:37;24.70;48.30
38746;DHT22;24488;0.000;0.000;2022-08-25T11:53:33;24.70;48.30
38746;DHT22;24488;0.000;0.000;2022-08-25T11:56:01;24.70;48.30
38746;DHT22;24488;0.000;0.000;2022-08-25T11:58:31;24.70;48.30
38746;DHT22;24488;0.000;0.000;2022-08-25T12:09:29;24.70;48.30
38746;DHT22;24488;0.000;0.000;2022-08-25T12:11:56;24.70;47.80
38746;DHT22;24488;0.000;0.000;2022-08-25T12:21:56;24.70;47.80
38746;DHT22;24488;0.000;0.000;2022-08-25T12:30:07;24.70;47.90
38746;DHT22;24488;0.000;0.000;2022-08-25T12:32:59;24.70;48.30
38746;DHT22;24488;0.000;0.000;2022-08-25T12:35:50;24.70;48.30
38746;DHT22;24488;0.000;0.000;2022-08-25T12:38:27;24.70;48.30
38746;DHT22;24488;0.000;0.000;2022-08-25T12:40:57;24.70;47.90
38746;DHT22;24488;0.000;0.000;2022-08-25T12:43:28;24.70;48.30
38746;DHT22;24488;0.000;0.000;2022-08-25T12:57:44;24.70;48.30
38746;DHT22;24488;0.000;0.000;2022-08-25T12:59:51;24.70;48.30
38746;DHT22;24488;0.000;0.000;2022-08-25T13:02:35;24.70;47.90
38746;DHT22;24488;0.000;0.000;2022-08-25T13:08:29;24.70;48.30
38746;DHT22;24488;0.000;0.000;2022-08-25T13:11:20;24.70;47.90
38746;DHT22;24488;0.000;0.000;2022-08-25T13:16:21;24.70;47.90
38746;DHT22;24488;0.000;0.000;2022-08-25T13:18:53;24.70;48.30
38746;DHT22;24488;0.000;0.000;2022-08-25T13:21:26;24.70;48.30
38746;DHT22;24488;0.000;0.000;2022-08-25T13:23:55;24.70;47.80
38746;DHT22;24488;0.000;0.000;2022-08-25T13:26:31;24.70;48.30
38746;DHT22;24488;0.000;0.000;2022-08-25T13:31:25;24.70;48.30
38746;DHT22;24488;0.000;0.000;2022-08-25T13:33:55;24.70;47.90
38746;DHT22;24488;0.000;0.000;2022-08-25T13:36:26;24.70;48.30
38746;DHT22;24488;0.000;0.000;2022-08-25T13:39:16;24.70;48.30
38746;DHT22;24488;0.000;0.000;2022-08-25T13:41:50;24.70;48.20
38746;DHT22;24488;0.000;0.000;2022-08-25T13:44:18;24.70;47.80
38746;DHT22;24488;0.000;0.000;2022-08-25T13:46:45;24.70;48.20
38746;DHT22;24488;0.000;0.000;2022-08-25T13:49:11;24.70;48.30
38746;DHT22;24488;0.000;0.000;2022-08-25T13:51:39;24.70;48.30
38746;DHT22;24488;0.000;0.000;2022-08-25T13:54:23;24.80;47.80
38746;DHT22;24488;0.000;0.000;2022-08-25T13:56:53;24.80;48.30
38746;DHT22;24488;0.000;0.000;2022-08-25T13:59:23;24.80;48.30
38746;DHT22;24488;0.000;0.000;2022-08-25T14:01:50;24.80;48.80
38746;DHT22;24488;0.000;0.000;2022-08-25T14:04:23;24.90;47.80
38746;DHT22;24488;0.000;0.000;2022-08-25T14:09:50;24.90;48.40
38746;DHT22;24488;0.000;0.000;2022-08-25T14:12:29;24.90;48.30
38746;DHT22;24488;0.000;0.000;2022-08-25T14:14:58;24.90;48.00
38746;DHT22;24488;0.000;0.000;2022-08-25T14:17:25;24.90;48.50
38746;DHT22;24488;0.000;0.000;2022-08-25T14:19:51;24.90;48.50
38746;DHT22;24488;0.000;0.000;2022-08-25T14:22:16;24.90;48.50
38746;DHT22;24488;0.000;0.000;2022-08-25T14:24:42;24.90;48.00
38746;DHT22;24488;0.000;0.000;2022-08-25T14:27:08;24.90;48.40
38746;DHT22;24488;0.000;0.000;2022-08-25T14:29:33;24.90;48.40
38746;DHT22;24488;0.000;0.000;2022-08-25T14:31:59;24.90;48.40
38746;DHT22;24488;0.000;0.000;2022-08-25T14:34:26;24.90;47.90
38746;DHT22;24488;0.000;0.000;2022-08-25T14:36:54;24.90;48.90
38746;DHT22;24488;0.000;0.000;2022-08-25T14:39:20;24.90;48.30
38746;DHT22;24488;0.000;0.000;2022-08-25T14:41:46;25.00;48.30
38746;DHT22;24488;0.000;0.000;2022-08-25T14:44:13;24.90;47.80
38746;DHT22;24488;0.000;0.000;2022-08-25T14:46:40;24.90;48.20
38746;DHT22;24488;0.000;0.000;2022-08-25T14:49:09;24.90;48.30
38746;DHT22;24488;0.000;0.000;2022-08-25T14:51:37;25.00;48.40
38746;DHT22;24488;0.000;0.000;2022-08-25T14:54:05;25.00;48.00
38746;DHT22;24488;0.000;0.000;2022-08-25T14:56:32;25.00;48.50
38746;DHT22;24488;0.000;0.000;2022-08-25T14:58:58;25.00;48.50
38746;DHT22;24488;0.000;0.000;2022-08-25T15:01:24;25.10;48.60
38746;DHT22;24488;0.000;0.000;2022-08-25T15:03:51;25.00;48.30
38746;DHT22;24488;0.000;0.000;2022-08-25T15:06:18;25.00;48.80
38746;DHT22;24488;0.000;0.000;2022-08-25T15:08:44;25.10;48.80
38746;DHT22;24488;0.000;0.000;2022-08-25T15:11:29;25.10;48.80
38746;DHT22;24488;0.000;0.000;2022-08-25T15:13:55;25.10;48.40
38746;DHT22;24488;0.000;0.000;2022-08-25T15:16:22;25.10;48.80
38746;DHT22;24488;0.000;0.000;2022-08-25T15:18:49;25.10;48.80
38746;DHT22;24488;0.000;0.000;2022-08-25T15:21:15;25.10;48.90
38746;DHT22;24488;0.000;0.000;2022-08-25T15:23:41;25.10;49.10
38746;DHT22;24488;0.000;0.000;2022-08-25T15:26:07;25.10;48.50
38746;DHT22;24488;0.000;0.000;2022-08-25T15:28:35;25.10;49.00
38746;DHT22;24488;0.000;0.000;2022-08-25T15:31:02;25.10;49.00
38746;DHT22;24488;0.000;0.000;2022-08-25T15:33:28;25.10;48.90
38746;DHT22;24488;0.000;0.000;2022-08-25T15:35:54;25.10;48.50
38746;DHT22;24488;0.000;0.000;2022-08-25T15:38:19;25.10;48.90
38746;DHT22;24488;0.000;0.000;2022-08-25T15:40:45;25.10;48.90
38746;DHT22;24488;0.000;0.000;2022-08-25T15:43:10;25.20;49.00
38746;DHT22;24488;0.000;0.000;2022-08-25T15:45:36;25.10;48.50
38746;DHT22;24488;0.000;0.000;2022-08-25T15:48:03;25.30;49.10
38746;DHT22;24488;0.000;0.000;2022-08-25T15:50:29;25.20;49.00
38746;DHT22;24488;0.000;0.000;2022-08-25T15:52:54;25.20;49.00
38746;DHT22;24488;0.000;0.000;2022-08-25T15:55:20;25.20;48.60
38746;DHT22;24488;0.000;0.000;2022-08-25T15:57:46;25.20;49.10
38746;DHT22;24488;0.000;0.000;2022-08-25T16:00:12;25.20;49.00
38746;DHT22;24488;0.000;0.000;2022-08-25T16:02:38;25.20;49.00
38746;DHT22;24488;0.000;0.000;2022-08-25T16:05:05;25.20;48.50
38746;DHT22;24488;0.000;0.000;2022-08-25T16:07:31;25.20;49.00
38746;DHT22;24488;0.000;0.000;2022-08-25T16:09:57;25.20;48.90
38746;DHT22;24488;0.000;0.000;2022-08-25T16:12:23;25.20;48.90
38746;DHT22;24488;0.000;0.000;2022-08-25T16:14:49;25.20;48.40
38746;DHT22;24488;0.000;0.000;2022-08-25T16:17:17;25.20;48.80
38746;DHT22;24488;0.000;0.000;2022-08-25T16:19:43;25.20;48.80
38746;DHT22;24488;0.000;0.000;2022-08-25T16:22:09;25.30;48.80
38746;DHT22;24488;0.000;0.000;2022-08-25T16:24:37;25.20;48.30
38746;DHT22;24488;0.000;0.000;2022-08-25T16:27:04;25.20;48.80
38746;DHT22;24488;0.000;0.000;2022-08-25T16:29:30;25.20;48.70
38746;DHT22;24488;0.000;0.000;2022-08-25T16:31:58;25.20;48.70
38746;DHT22;24488;0.000;0.000;2022-08-25T16:34:24;25.20;48.20
38746;DHT22;24488;0.000;0.000;2022-08-25T16:36:51;25.20;48.70
38746;DHT22;24488;0.000;0.000;2022-08-25T16:39:17;25.20;48.70
38746;DHT22;24488;0.000;0.000;2022-08-25T16:44:10;25.20;48.20
38746;DHT22;24488;0.000;0.000;2022-08-25T16:46:35;25.20;48.60
38746;DHT22;24488;0.000;0.000;2022-08-25T16:49:02;25.20;48.60
38746;DHT22;24488;0.000;0.000;2022-08-25T16:51:29;25.20;48.60
38746;DHT22;24488;0.000;0.000;2022-08-25T16:53:55;25.20;48.20
38746;DHT22;24488;0.000;0.000;2022-08-25T16:56:40;25.20;48.60
38746;DHT22;24488;0.000;0.000;2022-08-25T16:59:07;25.20;48.60
38746;DHT22;24488;0.000;0.000;2022-08-25T17:01:34;25.20;48.60
38746;DHT22;24488;0.000;0.000;2022-08-25T17:04:00;25.20;48.10
38746;DHT22;24488;0.000;0.000;2022-08-25T17:06:26;25.20;48.60
38746;DHT22;24488;0.000;0.000;2022-08-25T17:08:53;25.20;48.60
38746;DHT22;24488;0.000;0.000;2022-08-25T17:11:20;25.20;48.60
38746;DHT22;24488;0.000;0.000;2022-08-25T17:16:16;25.20;48.10
38746;DHT22;24488;0.000;0.000;2022-08-25T17:18:42;25.20;48.60
38746;DHT22;24488;0.000;0.000;2022-08-25T17:21:09;25.20;48.50
38746;DHT22;24488;0.000;0.000;2022-08-25T17:23:38;25.20;48.60
38746;DHT22;24488;0.000;0.000;2022-08-25T17:26:04;25.20;48.10
38746;DHT22;24488;0.000;0.000;2022-08-25T17:28:30;25.20;48.60
38746;DHT22;24488;0.000;0.000;2022-08-25T17:30:56;25.20;48.60
38746;DHT22;24488;0.000;0.000;2022-08-25T17:33:22;25.20;48.50
38746;DHT22;24488;0.000;0.000;2022-08-25T17:35:49;25.20;48.00
38746;DHT22;24488;0.000;0.000;2022-08-25T17:38:16;25.20;48.50